Time;durP1;ratioP1;P1;durP2;ratioP2;P2;SDS_P1;SDS_P2;PMS_P1;PMS_P2;Temp;Humidity;BMP_temperature;BMP_pressure;BME280_temperature;BME280_humidity;BME280_pressure;Samples;Min_cycle;Max_cycle;Signal;HPM_P1;HPM_P2
2022/12/29 00:00:05;;;;;;;3.07;1.60;;;10.40;1.00;;;;;;5035815;28;20302;-65
2022/12/29 00:02:38;;;;;;;1.60;1.37;;;10.40;1.00;;;;;;5036006;28;20611;-65
2022/12/29 00:05:06;;;;;;;2.93;1.67;;;10.40;1.00;;;;;;5016305;28;20243;-66
2022/12/29 00:07:34;;;;;;;4.53;2.63;;;10.40;1.00;;;;;;5035166;28;20733;-66
2022/12/29 00:10:07;;;;;;;2.73;1.37;;;10.40;1.00;;;;;;5036019;28;20614;-66
2022/12/29 00:15:36;;;;;;;1.77;1.30;;;10.40;1.00;;;;;;5004466;28;20212;-64
2022/12/29 00:18:04;;;;;;;2.63;1.90;;;10.50;1.00;;;;;;5010995;28;20281;-63
2022/12/29 00:44:04;;;;;;;1.63;1.10;;;10.60;1.00;;;;;;5035352;28;20239;-62
2022/12/29 00:45:41;;;;;;;1.00;0.90;;;10.60;1.00;;;;;;5037131;28;20258;-64
2022/12/29 00:48:11;;;;;;;1.03;0.97;;;10.50;1.00;;;;;;5019032;28;20277;-63
2022/12/29 00:50:38;;;;;;;1.93;1.03;;;10.60;1.00;;;;;;5036232;28;20681;-65
2022/12/29 00:53:05;;;;;;;1.47;1.07;;;10.70;1.00;;;;;;5048977;28;20195;-67
2022/12/29 00:55:37;;;;;;;1.00;0.90;;;10.70;1.00;;;;;;5021536;28;20200;-66
2022/12/29 00:58:04;;;;;;;1.10;1.00;;;10.70;1.00;;;;;;5034652;28;20196;-65
2022/12/29 01:00:31;;;;;;;1.00;0.90;;;10.70;1.00;;;;;;5037618;28;20208;-67
2022/12/29 01:02:58;;;;;;;2.30;1.00;;;10.70;1.00;;;;;;5019800;28;20201;-64
2022/12/29 01:05:25;;;;;;;1.57;0.90;;;10.80;1.00;;;;;;5052427;28;20595;-66
2022/12/29 01:07:52;;;;;;;1.90;1.03;;;10.90;1.00;;;;;;5022544;28;20252;-65
2022/12/29 01:10:19;;;;;;;0.97;0.87;;;10.90;1.00;;;;;;5037234;28;20598;-66
2022/12/29 01:12:47;;;;;;;0.63;0.63;;;11.00;1.00;;;;;;5037680;28;20652;-66
2022/12/29 01:15:14;;;;;;;0.87;0.87;;;11.00;1.00;;;;;;5054127;28;20192;-65
2022/12/29 01:17:42;;;;;;;0.77;0.77;;;11.00;1.00;;;;;;5012607;28;20195;-66
2022/12/29 01:20:10;;;;;;;2.50;0.90;;;11.00;1.00;;;;;;5034911;28;20778;-66
2022/12/29 01:22:37;;;;;;;1.33;0.77;;;11.00;1.00;;;;;;5035786;28;20729;-66
2022/12/29 01:25:06;;;;;;;0.80;0.80;;;11.00;1.00;;;;;;5035949;28;20199;-66
2022/12/29 01:27:34;;;;;;;0.70;0.70;;;11.00;1.00;;;;;;5054650;28;20315;-66
2022/12/29 01:30:01;;;;;;;2.70;0.87;;;11.00;1.00;;;;;;5033948;28;20230;-66
2022/12/29 01:32:28;;;;;;;0.80;0.80;;;11.10;1.00;;;;;;5037456;28;20744;-66
2022/12/29 01:34:54;;;;;;;0.80;0.80;;;11.10;1.00;;;;;;5055821;28;20195;-66
2022/12/29 01:37:21;;;;;;;1.90;0.83;;;11.10;1.00;;;;;;5037525;28;20230;-66
2022/12/29 01:39:48;;;;;;;0.70;0.70;;;11.10;1.00;;;;;;5037563;28;20520;-66
2022/12/29 01:42:18;;;;;;;1.10;1.00;;;11.10;1.00;;;;;;5038210;28;20210;-66
2022/12/29 01:44:57;;;;;;;1.17;1.03;;;11.10;1.00;;;;;;5054407;28;20188;-66
2022/12/29 01:47:30;;;;;;;0.83;0.80;;;11.00;1.00;;;;;;5040345;28;20534;-66
2022/12/29 01:50:02;;;;;;;0.93;0.90;;;11.00;1.00;;;;;;5040781;28;20201;-66
2022/12/29 01:52:33;;;;;;;0.90;0.90;;;10.90;1.00;;;;;;5041665;28;20230;-68
2022/12/29 01:55:03;;;;;;;0.80;0.80;;;11.00;1.00;;;;;;5042737;28;20265;-68
2022/12/29 01:57:36;;;;;;;0.60;0.60;;;11.00;1.00;;;;;;5042579;28;20199;-68
2022/12/29 02:00:11;;;;;;;1.07;0.70;;;11.00;1.00;;;;;;5041195;28;20614;-74
2022/12/29 02:02:47;;;;;;;2.73;0.80;;;11.00;1.00;;;;;;5015986;28;20192;-70
2022/12/29 02:05:20;;;;;;;0.60;0.60;;;11.00;1.00;;;;;;5042698;28;20711;-68
2022/12/29 02:07:50;;;;;;;0.70;0.70;;;11.00;1.00;;;;;;5057064;28;20205;-68
2022/12/29 02:10:19;;;;;;;0.70;0.70;;;11.00;1.00;;;;;;5040765;28;20272;-67
2022/12/29 02:12:47;;;;;;;0.63;0.63;;;11.00;1.00;;;;;;5023512;28;20663;-68
2022/12/29 02:15:15;;;;;;;0.77;0.70;;;11.00;1.00;;;;;;5025245;28;20201;-68
2022/12/29 02:17:46;;;;;;;1.63;0.87;;;11.00;1.00;;;;;;5042172;28;20289;-65
2022/12/29 02:20:57;;;;;;;0.60;0.60;;;11.10;1.00;;;;;;5025064;28;20257;-64
2022/12/29 02:23:58;;;;;;;0.60;0.60;;;11.20;1.00;;;;;;5025154;28;20755;-66
2022/12/29 02:26:31;;;;;;;0.63;0.63;;;11.20;1.00;;;;;;5038162;28;20178;-65
2022/12/29 02:29:24;;;;;;;0.63;0.63;;;11.20;1.00;;;;;;5023475;28;20261;-65
2022/12/29 02:31:58;;;;;;;0.60;0.60;;;11.20;1.00;;;;;;5059121;28;20204;-65
2022/12/29 02:34:49;;;;;;;0.60;0.60;;;11.20;1.00;;;;;;5015984;28;20396;-65
2022/12/29 02:37:24;;;;;;;0.70;0.70;;;11.20;1.00;;;;;;5057242;28;20188;-65
2022/12/29 02:43:59;;;;;;;0.60;0.60;;;11.20;1.00;;;;;;5057918;28;20186;-65
2022/12/29 02:46:44;;;;;;;0.70;0.70;;;11.00;1.00;;;;;;5051390;28;20217;-64
2022/12/29 02:49:19;;;;;;;0.90;0.90;;;11.10;1.00;;;;;;5023818;28;20309;-66
2022/12/29 02:52:04;;;;;;;0.60;0.60;;;11.10;1.00;;;;;;5038268;28;20257;-65
2022/12/29 02:54:41;;;;;;;0.93;0.80;;;11.00;1.00;;;;;;5007959;28;20640;-64
2022/12/29 02:57:27;;;;;;;0.83;0.80;;;11.00;1.00;;;;;;5038916;28;20191;-64
2022/12/29 03:00:09;;;;;;;2.07;0.77;;;11.10;1.00;;;;;;5031428;28;20240;-64
2022/12/29 03:03:15;;;;;;;1.07;0.80;;;11.30;1.00;;;;;;5022844;28;20196;-64
2022/12/29 03:06:24;;;;;;;0.60;0.60;;;11.30;1.00;;;;;;5050608;28;20556;-64
2022/12/29 03:09:03;;;;;;;0.70;0.70;;;11.30;1.00;;;;;;5052433;28;20200;-64
2022/12/29 03:12:07;;;;;;;1.27;0.70;;;11.30;1.00;;;;;;5036595;28;20203;-65
2022/12/29 03:17:48;;;;;;;1.40;0.80;;;11.40;1.00;;;;;;5035518;28;20761;-65
2022/12/29 03:20:20;;;;;;;0.70;0.70;;;11.40;1.00;;;;;;5020299;28;20246;-65
2022/12/29 03:22:53;;;;;;;2.47;0.70;;;11.30;1.00;;;;;;5034420;28;20659;-64
2022/12/29 03:25:35;;;;;;;3.47;0.80;;;11.30;1.00;;;;;;5018914;28;20196;-68
2022/12/29 03:28:29;;;;;;;0.60;0.60;;;11.20;1.00;;;;;;5036650;28;20214;-65
2022/12/29 03:30:58;;;;;;;0.80;0.60;;;11.20;1.00;;;;;;5027461;28;20544;-65
2022/12/29 03:33:29;;;;;;;2.10;0.80;;;11.20;1.00;;;;;;5035408;28;20215;-65
2022/12/29 03:36:03;;;;;;;1.07;0.60;;;11.30;1.00;;;;;;5050890;28;20300;-66
2022/12/29 03:38:40;;;;;;;1.13;0.90;;;11.40;1.00;;;;;;5047835;28;20224;-65
2022/12/29 03:41:13;;;;;;;2.60;0.90;;;11.30;1.00;;;;;;5034394;28;20563;-66
2022/12/29 03:43:40;;;;;;;3.53;2.73;;;11.40;1.00;;;;;;5010438;28;20192;-65
2022/12/29 03:46:07;;;;;;;1.40;1.30;;;11.50;1.00;;;;;;5015837;28;20229;-65
2022/12/29 03:48:35;;;;;;;1.30;1.03;;;11.60;1.00;;;;;;5017910;28;20274;-65
2022/12/29 03:51:03;;;;;;;0.80;0.80;;;11.70;1.00;;;;;;5036901;28;20297;-65
2022/12/29 03:53:30;;;;;;;1.53;1.07;;;11.70;1.00;;;;;;5021076;28;20200;-64
2022/12/29 03:55:57;;;;;;;1.50;0.90;;;11.70;1.00;;;;;;5035279;28;20199;-64
2022/12/29 03:58:24;;;;;;;1.07;0.80;;;11.70;1.00;;;;;;5036172;28;20199;-66
2022/12/29 04:01:07;;;;;;;1.63;0.83;;;11.60;1.00;;;;;;5034989;28;20195;-65
2022/12/29 04:03:36;;;;;;;1.07;0.97;;;11.50;1.00;;;;;;5035815;28;20246;-65
2022/12/29 04:06:04;;;;;;;0.80;0.80;;;11.50;1.00;;;;;;5032568;28;20699;-66
2022/12/29 04:08:38;;;;;;;1.67;0.93;;;11.40;1.00;;;;;;5034241;28;20195;-67
2022/12/29 04:11:06;;;;;;;0.83;0.80;;;11.30;1.00;;;;;;5014756;28;20212;-66
2022/12/29 04:13:33;;;;;;;1.77;1.07;;;11.30;1.00;;;;;;5035748;28;20198;-67
2022/12/29 04:16:00;;;;;;;3.10;1.07;;;11.30;1.00;;;;;;5032580;28;20299;-66
2022/12/29 04:18:27;;;;;;;1.20;0.93;;;11.30;1.00;;;;;;5034329;28;20191;-66
2022/12/29 04:21:00;;;;;;;1.27;1.00;;;11.20;1.00;;;;;;5032961;28;20294;-66
2022/12/29 04:23:30;;;;;;;2.37;1.00;;;11.00;1.00;;;;;;5034838;28;20302;-66
2022/12/29 04:25:58;;;;;;;1.50;0.97;;;11.00;1.00;;;;;;5036473;28;20338;-66
2022/12/29 04:28:27;;;;;;;1.77;1.03;;;11.00;1.00;;;;;;5014217;28;20312;-66
2022/12/29 04:30:57;;;;;;;1.10;1.00;;;11.00;1.00;;;;;;5036441;28;20217;-66
2022/12/29 04:33:32;;;;;;;1.57;0.83;;;11.00;1.00;;;;;;5019854;28;20257;-66
2022/12/29 04:36:00;;;;;;;0.97;0.80;;;11.10;1.00;;;;;;5016003;28;20258;-67
2022/12/29 04:38:28;;;;;;;0.87;0.87;;;11.10;1.00;;;;;;5034499;28;20219;-66
2022/12/29 04:40:55;;;;;;;1.60;1.00;;;11.00;1.00;;;;;;5035349;28;20204;-66
2022/12/29 04:43:23;;;;;;;2.17;1.73;;;11.00;1.00;;;;;;5035231;28;20691;-66
2022/12/29 04:46:08;;;;;;;6.47;3.47;;;11.00;1.00;;;;;;5035661;28;20252;-66
2022/12/29 04:49:07;;;;;;;4.53;2.97;;;11.10;1.00;;;;;;5031284;28;20220;-66
2022/12/29 04:51:47;;;;;;;1.03;1.00;;;11.10;1.00;;;;;;5035207;28;20307;-66
2022/12/29 04:54:15;;;;;;;3.30;2.17;;;11.10;1.00;;;;;;5032482;28;20568;-66
2022/12/29 04:56:46;;;;;;;3.07;0.93;;;11.00;1.00;;;;;;5032871;28;20207;-65
2022/12/29 04:59:15;;;;;;;3.93;2.30;;;11.10;1.00;;;;;;5034553;28;20628;-65
2022/12/29 05:01:46;;;;;;;1.00;0.90;;;11.20;1.00;;;;;;5018896;28;20254;-65
2022/12/29 05:04:13;;;;;;;1.57;0.97;;;11.20;1.00;;;;;;5033760;28;20773;-66
2022/12/29 05:06:41;;;;;;;1.63;0.90;;;11.30;1.00;;;;;;5031690;28;20207;-65
2022/12/29 05:09:09;;;;;;;0.73;0.67;;;11.40;1.00;;;;;;5035858;28;20558;-66
2022/12/29 05:11:36;;;;;;;1.10;0.87;;;11.50;1.00;;;;;;5018318;28;20212;-66
2022/12/29 05:14:03;;;;;;;1.10;1.00;;;11.50;1.00;;;;;;5050706;28;20228;-67
2022/12/29 05:16:30;;;;;;;0.70;0.70;;;11.50;1.00;;;;;;5017428;28;20200;-67
2022/12/29 05:18:57;;;;;;;1.07;0.97;;;11.60;1.00;;;;;;5031817;28;20634;-67
2022/12/29 05:21:24;;;;;;;0.80;0.80;;;11.60;1.00;;;;;;5035637;28;20540;-67
2022/12/29 05:23:51;;;;;;;1.50;0.90;;;11.60;1.00;;;;;;5037059;28;20197;-66
2022/12/29 05:26:18;;;;;;;1.30;0.80;;;11.50;1.00;;;;;;5038538;28;20258;-65
2022/12/29 05:29:18;;;;;;;1.37;1.10;;;11.50;1.00;;;;;;5016166;28;20665;-65
2022/12/29 05:31:45;;;;;;;0.97;0.87;;;11.50;1.00;;;;;;5038054;28;20228;-65
2022/12/29 05:34:12;;;;;;;1.47;0.80;;;11.60;1.00;;;;;;5038514;28;20641;-65
2022/12/29 05:36:40;;;;;;;2.70;1.00;;;11.70;1.00;;;;;;5030140;28;20196;-67
2022/12/29 05:39:09;;;;;;;2.90;1.03;;;11.80;1.00;;;;;;5039940;28;20195;-66
2022/12/29 05:41:37;;;;;;;2.53;1.00;;;11.80;1.00;;;;;;5038688;28;20536;-66
2022/12/29 05:44:04;;;;;;;1.80;0.80;;;11.90;1.00;;;;;;5039701;28;20852;-66
2022/12/29 05:47:03;;;;;;;1.13;0.83;;;11.80;1.00;;;;;;4997750;28;20209;-66
2022/12/29 05:49:49;;;;;;;1.13;1.03;;;11.70;1.00;;;;;;5038095;28;20198;-67
2022/12/29 05:52:28;;;;;;;1.83;0.90;;;11.70;1.00;;;;;;5037304;28;20246;-66
2022/12/29 05:54:55;;;;;;;3.67;1.37;;;11.80;1.00;;;;;;5037504;28;20188;-66
2022/12/29 05:57:24;;;;;;;1.13;1.00;;;11.80;1.00;;;;;;5035596;28;20283;-66
2022/12/29 06:00:06;;;;;;;1.17;0.80;;;11.70;1.00;;;;;;5049540;28;20199;-66
2022/12/29 06:02:41;;;;;;;0.90;0.80;;;11.90;1.00;;;;;;5037566;28;20778;-66
2022/12/29 06:05:08;;;;;;;2.30;0.90;;;11.90;1.00;;;;;;5036206;28;20258;-67
2022/12/29 06:07:37;;;;;;;1.30;1.10;;;11.80;1.00;;;;;;5019501;28;20220;-72
2022/12/29 06:10:08;;;;;;;2.30;0.97;;;11.90;1.00;;;;;;5020853;28;20690;-66
2022/12/29 06:12:42;;;;;;;1.10;0.80;;;12.00;1.00;;;;;;5037824;28;20832;-66
2022/12/29 06:15:10;;;;;;;1.30;0.90;;;12.10;1.00;;;;;;5036863;28;20624;-66
2022/12/29 06:17:39;;;;;;;1.00;0.80;;;12.10;1.00;;;;;;5038533;28;20184;-66
2022/12/29 06:20:07;;;;;;;1.23;0.70;;;12.00;1.00;;;;;;5033758;28;20195;-66
2022/12/29 06:22:35;;;;;;;1.10;1.00;;;12.00;1.00;;;;;;5038520;28;20253;-67
2022/12/29 06:25:02;;;;;;;1.47;0.90;;;12.00;1.00;;;;;;5035592;28;20671;-66
2022/12/29 06:27:33;;;;;;;0.87;0.87;;;12.00;1.00;;;;;;5035436;28;20241;-67
2022/12/29 06:30:00;;;;;;;1.43;1.00;;;11.90;1.00;;;;;;5019639;28;20193;-65
2022/12/29 06:32:27;;;;;;;1.67;1.10;;;11.90;1.00;;;;;;5035895;28;20353;-66
2022/12/29 06:34:59;;;;;;;1.13;0.80;;;11.90;1.00;;;;;;5054056;28;20764;-67
2022/12/29 06:37:27;;;;;;;1.00;0.87;;;11.90;1.00;;;;;;5018623;28;20196;-67
2022/12/29 06:39:54;;;;;;;1.20;0.90;;;11.80;1.00;;;;;;5048129;28;20230;-65
2022/12/29 06:42:24;;;;;;;1.27;1.10;;;11.80;1.00;;;;;;5034588;28;20200;-65
2022/12/29 06:45:09;;;;;;;1.47;1.03;;;11.80;1.00;;;;;;5034264;28;20629;-65
2022/12/29 06:47:36;;;;;;;2.20;0.93;;;11.80;1.00;;;;;;5035856;28;20591;-65
2022/12/29 06:50:03;;;;;;;2.17;0.97;;;11.70;1.00;;;;;;5034982;28;20200;-65
2022/12/29 06:52:30;;;;;;;2.17;1.20;;;11.70;1.00;;;;;;5035603;28;20574;-65
2022/12/29 06:54:57;;;;;;;1.70;1.03;;;11.80;1.00;;;;;;5035985;28;20190;-65
2022/12/29 06:57:26;;;;;;;3.07;0.90;;;11.80;1.00;;;;;;5033098;28;20398;-65
2022/12/29 06:59:55;;;;;;;1.93;1.03;;;11.90;1.00;;;;;;5038520;28;20270;-65
2022/12/29 07:02:24;;;;;;;1.10;0.70;;;11.80;1.00;;;;;;5037999;28;20200;-66
2022/12/29 07:04:52;;;;;;;1.63;0.90;;;11.70;1.00;;;;;;5036107;28;20239;-65
2022/12/29 07:07:20;;;;;;;0.77;0.77;;;11.60;1.00;;;;;;5037411;28;20294;-65
2022/12/29 07:09:47;;;;;;;1.70;0.83;;;11.60;1.00;;;;;;5037701;28;20406;-65
2022/12/29 07:12:14;;;;;;;2.57;1.17;;;11.60;1.00;;;;;;5036802;28;20435;-65
2022/12/29 07:14:41;;;;;;;1.63;0.90;;;11.70;1.00;;;;;;5034020;28;20244;-65
2022/12/29 07:17:09;;;;;;;3.47;1.13;;;11.70;1.00;;;;;;5036259;28;20200;-66
2022/12/29 07:19:36;;;;;;;2.43;1.10;;;11.70;1.00;;;;;;5032838;28;20183;-66
2022/12/29 07:22:03;;;;;;;2.83;1.20;;;11.70;1.00;;;;;;5036494;28;20692;-66
2022/12/29 07:24:30;;;;;;;2.70;1.10;;;11.60;1.00;;;;;;5034050;28;20680;-68
2022/12/29 07:26:57;;;;;;;2.10;0.90;;;11.70;1.00;;;;;;5032745;28;20274;-66
2022/12/29 07:29:24;;;;;;;3.40;1.17;;;11.70;1.00;;;;;;5036635;28;20793;-66
2022/12/29 07:31:51;;;;;;;1.17;0.90;;;11.80;1.00;;;;;;5035904;28;20232;-66
2022/12/29 07:34:18;;;;;;;2.37;1.17;;;11.80;1.00;;;;;;5034645;28;20190;-65
2022/12/29 07:36:45;;;;;;;3.03;1.00;;;11.80;1.00;;;;;;5034161;28;20298;-65
2022/12/29 07:39:12;;;;;;;1.43;1.10;;;11.60;1.00;;;;;;5036824;28;20715;-65
2022/12/29 07:41:40;;;;;;;2.27;1.10;;;11.40;1.00;;;;;;5032521;28;20222;-66
2022/12/29 07:44:11;;;;;;;2.53;0.90;;;11.40;1.00;;;;;;5034583;28;20223;-66
2022/12/29 07:46:58;;;;;;;3.07;1.07;;;11.30;1.00;;;;;;5035652;28;20787;-66
2022/12/29 07:49:26;;;;;;;3.47;1.00;;;11.30;1.00;;;;;;5033414;28;20660;-66
2022/12/29 07:51:53;;;;;;;4.40;1.30;;;11.30;1.00;;;;;;5034123;28;20325;-65
2022/12/29 07:54:20;;;;;;;4.50;1.30;;;11.30;1.00;;;;;;5038107;28;20611;-65
2022/12/29 07:56:47;;;;;;;2.57;1.30;;;11.40;1.00;;;;;;5034948;28;20659;-65
2022/12/29 07:59:14;;;;;;;1.23;0.87;;;11.50;1.00;;;;;;5031462;28;20543;-66
2022/12/29 08:01:41;;;;;;;1.17;0.93;;;11.60;1.00;;;;;;5032125;28;20280;-64
2022/12/29 08:04:08;;;;;;;3.00;1.00;;;11.60;1.00;;;;;;5038974;28;20246;-64
2022/12/29 08:06:37;;;;;;;2.50;1.27;;;11.60;1.00;;;;;;5035540;28;20222;-65
2022/12/29 08:09:04;;;;;;;1.93;0.90;;;11.50;1.00;;;;;;5055142;28;20202;-65
2022/12/29 08:11:44;;;;;;;2.17;1.20;;;11.50;1.00;;;;;;5038726;28;20199;-65
2022/12/29 08:14:11;;;;;;;3.57;1.10;;;11.40;1.00;;;;;;5037499;28;20202;-65
2022/12/29 08:16:38;;;;;;;2.53;1.00;;;11.30;1.00;;;;;;5040162;28;20222;-65
2022/12/29 08:19:05;;;;;;;5.03;1.30;;;11.30;1.00;;;;;;5056596;28;20253;-65
2022/12/29 08:21:32;;;;;;;3.77;1.20;;;11.30;1.00;;;;;;5056578;28;20191;-65
2022/12/29 08:23:59;;;;;;;2.10;1.20;;;11.40;1.00;;;;;;5057079;28;20206;-64
2022/12/29 08:26:26;;;;;;;5.17;1.20;;;11.50;1.00;;;;;;5055445;28;20268;-65
2022/12/29 08:28:55;;;;;;;2.13;1.30;;;11.50;1.00;;;;;;5037733;28;20252;-65
2022/12/29 08:31:23;;;;;;;2.97;1.13;;;11.60;1.00;;;;;;5056359;28;20285;-66
2022/12/29 08:33:50;;;;;;;3.37;1.27;;;11.50;1.00;;;;;;5038553;28;20437;-66
2022/12/29 08:36:18;;;;;;;3.97;1.10;;;11.60;1.00;;;;;;5056079;28;20183;-65
2022/12/29 08:38:45;;;;;;;3.43;1.30;;;11.70;1.00;;;;;;5055861;28;20270;-66
2022/12/29 08:41:12;;;;;;;5.43;1.83;;;11.80;1.00;;;;;;5056893;28;20543;-66
2022/12/29 08:43:45;;;;;;;3.70;1.20;;;11.80;1.00;;;;;;5057375;28;20201;-65
2022/12/29 08:46:12;;;;;;;5.87;1.60;;;11.80;1.00;;;;;;5035823;28;20198;-63
2022/12/29 08:48:39;;;;;;;3.47;1.33;;;11.70;1.00;;;;;;5055118;28;20218;-64
2022/12/29 08:51:06;;;;;;;8.30;4.20;;;11.60;1.00;;;;;;5051258;28;20211;-63
2022/12/29 08:53:33;;;;;;;4.40;2.73;;;11.50;1.00;;;;;;5056627;28;20290;-63
2022/12/29 08:56:01;;;;;;;6.37;3.10;;;11.60;1.00;;;;;;5036886;28;20198;-64
2022/12/29 08:58:40;;;;;;;7.17;3.23;;;11.70;1.00;;;;;;5057290;28;20648;-64
2022/12/29 09:01:09;;;;;;;6.07;1.47;;;11.80;1.00;;;;;;5036739;28;20191;-64
2022/12/29 09:03:36;;;;;;;3.03;1.40;;;11.80;1.00;;;;;;5042362;28;20219;-64
2022/12/29 09:06:23;;;;;;;4.07;1.90;;;11.90;1.00;;;;;;5030500;28;21071;-64
2022/12/29 09:08:50;;;;;;;4.03;2.00;;;12.10;1.00;;;;;;5056826;28;20333;-65
2022/12/29 09:11:21;;;;;;;10.93;4.93;;;12.20;1.00;;;;;;5056191;28;20651;-64
2022/12/29 09:13:48;;;;;;;6.30;1.50;;;12.10;1.00;;;;;;5057689;28;20851;-64
2022/12/29 09:16:16;;;;;;;7.97;1.80;;;12.00;1.00;;;;;;5037555;28;20191;-65
2022/12/29 09:18:44;;;;;;;2.60;1.40;;;11.90;1.00;;;;;;5039109;28;20590;-64
2022/12/29 09:21:12;;;;;;;4.90;1.30;;;11.90;1.00;;;;;;5058785;28;20194;-64
2022/12/29 09:23:39;;;;;;;5.53;1.50;;;11.90;1.00;;;;;;5057956;28;20191;-64
2022/12/29 09:26:07;;;;;;;3.50;1.20;;;11.90;1.00;;;;;;5037739;28;20286;-64
2022/12/29 09:28:34;;;;;;;4.93;1.23;;;11.90;1.00;;;;;;5057251;28;20206;-64
2022/12/29 09:31:01;;;;;;;3.53;1.23;;;11.90;1.00;;;;;;5039603;28;20204;-64
2022/12/29 09:33:28;;;;;;;4.23;1.57;;;11.80;1.00;;;;;;5057147;28;20237;-65
2022/12/29 09:35:57;;;;;;;5.37;1.53;;;11.80;1.00;;;;;;5056037;28;20290;-64
2022/12/29 09:38:26;;;;;;;5.37;1.37;;;11.70;1.00;;;;;;5024203;28;20191;-66
2022/12/29 09:40:59;;;;;;;8.10;1.47;;;11.90;1.00;;;;;;5041674;28;20203;-66
2022/12/29 09:43:42;;;;;;;6.47;2.20;;;12.00;1.00;;;;;;5059826;28;20195;-66
2022/12/29 09:46:26;;;;;;;5.60;2.83;;;12.00;1.00;;;;;;5059587;28;20194;-66
2022/12/29 09:49:07;;;;;;;7.03;1.80;;;12.10;1.00;;;;;;5058845;28;20198;-66
2022/12/29 09:51:37;;;;;;;4.13;1.47;;;12.10;1.00;;;;;;5056867;28;20735;-66
2022/12/29 09:54:36;;;;;;;6.07;2.47;;;13.10;1.00;;;;;;5056458;28;20245;-67
2022/12/29 09:57:10;;;;;;;6.78;2.92;;;16.50;1.00;;;;;;5054997;28;20275;-67
2022/12/29 09:59:43;;;;;;;8.73;4.07;;;17.70;1.00;;;;;;5057080;28;20183;-66
2022/12/29 10:02:32;;;;;;;7.88;2.92;;;19.10;1.00;;;;;;5024374;28;20187;-66
2022/12/29 10:04:59;;;;;;;8.95;3.47;;;20.40;1.00;;;;;;5037617;28;20325;-66
2022/12/29 10:07:49;;;;;;;6.60;2.25;;;19.50;1.00;;;;;;5054816;28;20186;-66
2022/12/29 10:10:36;;;;;;;8.52;4.82;;;19.90;1.00;;;;;;5041546;28;20505;-66
2022/12/29 10:13:02;;;;;;;7.10;2.65;;;18.90;1.00;;;;;;5037837;28;20237;-66
2022/12/29 10:15:45;;;;;;;8.82;4.50;;;17.70;1.00;;;;;;5055021;28;20236;-65
2022/12/29 10:18:35;;;;;;;8.90;3.72;;;14.90;1.00;;;;;;5038696;28;20585;-65
2022/12/29 10:21:31;;;;;;;6.65;3.90;;;13.40;1.00;;;;;;5057724;28;20264;-65
2022/12/29 10:24:01;;;;;;;6.75;1.95;;;13.40;1.00;;;;;;5027213;28;20596;-66
2022/12/29 10:26:35;;;;;;;5.40;1.95;;;14.20;1.00;;;;;;5059438;28;20257;-65
2022/12/29 10:29:16;;;;;;;6.00;2.30;;;16.20;1.00;;;;;;5058121;28;20201;-65
2022/12/29 10:31:59;;;;;;;5.18;1.42;;;14.60;1.00;;;;;;5021072;28;20270;-65
2022/12/29 10:34:36;;;;;;;3.38;1.55;;;13.50;1.00;;;;;;5037312;28;20265;-65
2022/12/29 10:37:27;;;;;;;5.95;1.60;;;13.00;1.00;;;;;;5057530;28;20197;-65
2022/12/29 10:40:11;;;;;;;5.68;1.67;;;13.10;1.00;;;;;;5056925;28;20277;-65
2022/12/29 10:42:44;;;;;;;3.13;1.40;;;13.20;1.00;;;;;;5056141;28;20655;-65
2022/12/29 10:45:16;;;;;;;3.72;1.83;;;13.10;1.00;;;;;;5054890;28;20191;-65
2022/12/29 10:47:56;;;;;;;6.22;2.10;;;13.10;1.00;;;;;;5038169;28;21016;-65
2022/12/29 10:50:25;;;;;;;3.83;1.50;;;12.90;1.00;;;;;;5019716;28;20564;-65
2022/12/29 10:52:53;;;;;;;3.83;1.80;;;12.70;1.00;;;;;;5056127;28;20206;-65
2022/12/29 10:55:30;;;;;;;7.13;1.70;;;12.60;1.00;;;;;;5053990;28;20195;-64
2022/12/29 10:58:04;;;;;;;5.40;1.80;;;12.50;1.00;;;;;;5056456;28;20202;-65
2022/12/29 11:00:32;;;;;;;7.07;1.87;;;12.50;1.00;;;;;;5050972;28;20200;-67
2022/12/29 11:03:15;;;;;;;6.03;1.37;;;12.50;1.00;;;;;;5054077;28;20217;-65
2022/12/29 11:05:58;;;;;;;4.50;1.30;;;12.80;1.00;;;;;;5029206;28;20235;-66
2022/12/29 11:08:31;;;;;;;3.73;1.40;;;12.90;1.00;;;;;;5038883;28;20203;-65
2022/12/29 11:11:01;;;;;;;5.30;1.70;;;13.10;1.00;;;;;;5054872;28;21194;-65
2022/12/29 11:13:34;;;;;;;12.33;5.93;;;13.10;1.00;;;;;;5039816;28;20290;-65
2022/12/29 11:16:05;;;;;;;20.97;10.93;;;12.80;1.00;;;;;;5056388;28;20546;-66
2022/12/29 11:18:37;;;;;;;5.97;3.10;;;12.70;1.00;;;;;;5056260;28;20191;-65
2022/12/29 11:21:23;;;;;;;9.87;3.10;;;12.50;1.00;;;;;;5055297;28;20215;-65
2022/12/29 11:24:02;;;;;;;4.18;1.65;;;12.50;1.00;;;;;;5056328;28;20618;-64
2022/12/29 11:26:30;;;;;;;5.50;1.40;;;12.40;1.00;;;;;;5039249;28;20191;-64
2022/12/29 11:29:10;;;;;;;4.13;1.43;;;12.30;1.00;;;;;;5039609;28;20285;-64
2022/12/29 11:31:58;;;;;;;7.43;2.00;;;12.20;1.00;;;;;;5058381;28;20451;-64
2022/12/29 11:34:26;;;;;;;4.33;1.90;;;12.20;1.00;;;;;;5038618;28;20683;-64
2022/12/29 11:37:04;;;;;;;5.37;2.13;;;12.20;1.00;;;;;;5022994;28;20267;-64
2022/12/29 11:39:40;;;;;;;2.60;1.17;;;12.10;1.00;;;;;;5040137;28;20179;-64
2022/12/29 11:42:18;;;;;;;5.13;1.60;;;12.10;1.00;;;;;;5019654;28;20549;-64
2022/12/29 11:44:51;;;;;;;8.47;2.10;;;12.10;1.00;;;;;;5022360;28;20245;-65
2022/12/29 11:47:32;;;;;;;6.33;1.60;;;12.00;1.00;;;;;;5054413;28;20204;-64
2022/12/29 11:50:02;;;;;;;4.30;1.50;;;12.00;1.00;;;;;;5039277;28;20238;-64
2022/12/29 11:52:34;;;;;;;6.27;1.63;;;12.00;1.00;;;;;;5039890;28;20204;-65
2022/12/29 11:55:05;;;;;;;5.30;2.17;;;12.00;1.00;;;;;;5039017;28;20199;-63
2022/12/29 11:57:34;;;;;;;8.90;1.97;;;12.00;1.00;;;;;;5057931;28;20226;-64
2022/12/29 12:00:14;;;;;;;4.63;1.50;;;12.00;1.00;;;;;;5038374;28;20249;-63
2022/12/29 12:02:56;;;;;;;4.67;1.90;;;12.00;1.00;;;;;;5052782;28;20203;-64
2022/12/29 12:05:27;;;;;;;5.23;1.70;;;12.00;1.00;;;;;;5019752;28;20302;-64
2022/12/29 12:08:33;;;;;;;7.73;1.80;;;12.00;1.00;;;;;;5037301;28;20198;-67
2022/12/29 12:11:09;;;;;;;5.87;2.20;;;12.00;1.00;;;;;;4913642;29;20297;-63
2022/12/29 12:13:47;;;;;;;3.80;1.90;;;11.90;1.00;;;;;;5020146;28;20657;-63
2022/12/29 12:16:21;;;;;;;7.30;1.87;;;11.90;1.00;;;;;;5035102;28;20242;-63
2022/12/29 12:19:19;;;;;;;8.47;3.30;;;12.00;1.00;;;;;;5049215;28;20278;-63
2022/12/29 12:21:54;;;;;;;12.90;5.80;;;12.00;1.00;;;;;;5031623;28;20554;-65
2022/12/29 12:24:33;;;;;;;10.67;3.43;;;12.00;1.00;;;;;;5018297;28;20199;-65
2022/12/29 12:27:20;;;;;;;7.77;3.57;;;12.00;1.00;;;;;;5036033;28;20603;-64
2022/12/29 12:30:11;;;;;;;6.90;2.60;;;12.00;1.00;;;;;;5036483;28;20295;-65
2022/12/29 12:32:42;;;;;;;8.97;2.37;;;12.00;1.00;;;;;;5036609;28;20200;-64
2022/12/29 12:35:14;;;;;;;9.00;2.63;;;12.00;1.00;;;;;;5035685;28;20651;-64
2022/12/29 12:38:06;;;;;;;8.23;2.40;;;12.00;1.00;;;;;;5017312;28;20250;-65
2022/12/29 12:40:58;;;;;;;9.17;1.90;;;12.00;1.00;;;;;;5035834;28;20253;-65
2022/12/29 12:43:46;;;;;;;6.47;2.20;;;11.90;1.00;;;;;;4976170;28;20580;-64
2022/12/29 12:46:38;;;;;;;6.70;1.40;;;11.90;1.00;;;;;;5031488;28;20192;-65
2022/12/29 12:49:20;;;;;;;8.47;1.77;;;11.90;1.00;;;;;;5036422;28;20298;-65
2022/12/29 12:51:52;;;;;;;7.17;1.97;;;11.90;1.00;;;;;;5032462;28;20187;-64
2022/12/29 12:54:56;;;;;;;10.13;1.97;;;11.90;1.00;;;;;;5032743;28;20204;-64
2022/12/29 12:57:23;;;;;;;7.17;2.07;;;11.90;1.00;;;;;;5031433;28;20414;-64
2022/12/29 12:59:57;;;;;;;4.10;1.60;;;11.80;1.00;;;;;;5028546;28;20176;-64
2022/12/29 13:03:03;;;;;;;7.10;1.80;;;11.80;1.00;;;;;;5010235;28;20211;-65
2022/12/29 13:06:03;;;;;;;7.60;1.90;;;11.80;1.00;;;;;;5046868;28;20227;-64
2022/12/29 13:08:47;;;;;;;6.37;1.83;;;11.70;1.00;;;;;;5029410;28;20578;-62
2022/12/29 13:11:33;;;;;;;7.10;1.80;;;11.70;1.00;;;;;;5034146;28;20199;-63
2022/12/29 13:14:38;;;;;;;4.70;1.60;;;11.70;1.00;;;;;;5032309;28;20663;-64
2022/12/29 13:17:28;;;;;;;9.07;1.77;;;11.70;1.00;;;;;;5001337;28;20207;-63
2022/12/29 13:20:09;;;;;;;6.40;2.03;;;11.60;1.00;;;;;;5036057;28;20618;-65
2022/12/29 13:23:08;;;;;;;7.40;2.07;;;11.60;1.00;;;;;;5035536;28;20219;-63
2022/12/29 13:25:35;;;;;;;4.93;1.83;;;11.60;1.00;;;;;;5021682;28;20585;-62
2022/12/29 13:28:34;;;;;;;6.77;1.80;;;11.60;1.00;;;;;;5030686;28;20579;-63
2022/12/29 13:31:11;;;;;;;7.43;2.40;;;11.60;1.00;;;;;;5032952;28;20196;-62
2022/12/29 13:34:10;;;;;;;5.47;2.07;;;11.50;1.00;;;;;;5033152;28;20212;-62
2022/12/29 13:36:49;;;;;;;4.63;2.40;;;11.60;1.00;;;;;;5022604;28;20219;-63
2022/12/29 13:39:25;;;;;;;6.37;1.90;;;11.60;1.00;;;;;;5045044;28;20622;-63
2022/12/29 13:41:54;;;;;;;4.93;1.93;;;11.60;1.00;;;;;;5039447;28;20253;-63
2022/12/29 13:44:29;;;;;;;5.90;2.07;;;11.50;1.00;;;;;;5040438;28;20249;-62
2022/12/29 13:47:22;;;;;;;9.50;2.43;;;11.50;1.00;;;;;;5037382;28;20717;-64
2022/12/29 13:49:51;;;;;;;5.33;1.63;;;11.40;1.00;;;;;;4995412;28;20291;-64
2022/12/29 13:52:32;;;;;;;12.00;2.00;;;11.40;1.00;;;;;;5034749;28;20223;-63
2022/12/29 13:55:26;;;;;;;7.00;1.80;;;11.40;1.00;;;;;;5037534;28;20281;-62
2022/12/29 13:57:53;;;;;;;11.17;1.87;;;11.40;1.00;;;;;;5036428;28;20272;-63
2022/12/29 14:00:22;;;;;;;5.03;1.60;;;11.40;1.00;;;;;;5037558;28;20818;-63
2022/12/29 14:03:21;;;;;;;6.40;1.67;;;11.40;1.00;;;;;;5038992;28;20339;-63
2022/12/29 14:06:13;;;;;;;10.30;2.40;;;11.40;1.00;;;;;;5006201;28;20330;-62